createdAt,value
2019-05-05T00:00:55.121Z,67.29
2019-05-05T00:03:55.689Z,68.14
2019-05-05T00:06:44.541Z,67.15
2019-05-05T00:09:34.550Z,65.86
2019-05-05T00:12:45.949Z,65.72
2019-05-05T00:16:07.215Z,67.28
2019-05-05T00:18:54.978Z,66.90
2019-05-05T00:21:44.553Z,66.67
2019-05-05T00:24:31.499Z,65.26
2019-05-05T00:27:19.087Z,65.61
2019-05-05T00:30:06.877Z,66.57
2019-05-05T00:32:55.028Z,67.38
2019-05-05T00:35:42.522Z,66.69
2019-05-05T00:38:29.671Z,67.10
2019-05-05T00:41:16.856Z,66.55
2019-05-05T00:44:04.913Z,65.68
2019-05-05T00:47:09.306Z,65.45
2019-05-05T00:49:56.469Z,65.54
2019-05-05T00:52:44.646Z,67.07
2019-05-05T00:55:34.976Z,66.11
2019-05-05T00:58:22.018Z,66.43
2019-05-05T01:01:18.444Z,67.13
2019-05-05T01:04:07.763Z,67.38
2019-05-05T01:06:55.178Z,67.12
2019-05-05T01:09:45.113Z,67.76
2019-05-05T01:12:34.336Z,67.46
2019-05-05T01:15:22.292Z,67.93
2019-05-05T01:18:09.777Z,67.69
2019-05-05T01:20:57.210Z,67.88
2019-05-05T01:23:45.518Z,67.79
2019-05-05T01:26:35.245Z,68.14
2019-05-05T01:29:22.717Z,69.47
2019-05-05T01:32:15.286Z,69.17
2019-05-05T01:35:02.624Z,69.18
2019-05-05T01:38:01.825Z,68.72
2019-05-05T01:41:14.631Z,68.82
2019-05-05T01:44:01.562Z,69.51
2019-05-05T01:46:49.447Z,68.94
2019-05-05T01:49:36.610Z,68.70
2019-05-05T01:52:25.452Z,69.02
2019-05-05T01:55:14.756Z,69.65
2019-05-05T01:58:04.565Z,69.72
2019-05-05T02:00:51.356Z,69.51
2019-05-05T02:03:39.372Z,68.99
2019-05-05T02:06:26.860Z,68.43
2019-05-05T02:09:15.909Z,68.89
2019-05-05T02:12:05.165Z,68.69
2019-05-05T02:14:52.345Z,69.45
2019-05-05T02:17:39.998Z,69.74
2019-05-05T02:20:51.534Z,68.00
2019-05-05T02:23:39.115Z,69.23
2019-05-05T02:26:26.536Z,69.64
2019-05-05T02:29:35.318Z,69.56
2019-05-05T02:32:48.187Z,68.88
2019-05-05T02:35:35.627Z,69.35
2019-05-05T02:38:26.219Z,68.57
2019-05-05T02:41:15.424Z,69.61
2019-05-05T02:44:04.865Z,68.31
2019-05-05T02:47:05.721Z,68.42
2019-05-05T02:49:54.862Z,68.73
2019-05-05T02:52:44.248Z,68.41
2019-05-05T02:55:32.838Z,69.28
2019-05-05T02:58:21.088Z,69.49
2019-05-05T03:01:26.538Z,69.79
2019-05-05T03:04:14.366Z,69.64
2019-05-05T03:07:04.732Z,70.53
2019-05-05T03:09:54.532Z,71.17
2019-05-05T03:12:43.803Z,70.83
2019-05-05T03:15:51.194Z,70.66
2019-05-05T03:18:38.734Z,69.36
2019-05-05T03:21:26.167Z,70.27
2019-05-05T03:24:14.498Z,70.56
2019-05-05T03:27:03.801Z,70.77
2019-05-05T03:29:53.484Z,70.72
2019-05-05T03:32:45.251Z,70.03
2019-05-05T03:35:31.261Z,70.02
2019-05-05T03:38:18.695Z,69.10
2019-05-05T03:41:09.019Z,68.68
2019-05-05T03:44:07.370Z,68.89
2019-05-05T03:46:55.483Z,69.91
2019-05-05T03:49:44.189Z,69.86
2019-05-05T03:52:31.669Z,69.82
2019-05-05T03:55:19.815Z,69.87
2019-05-05T03:58:07.248Z,70.26
2019-05-05T04:01:31.227Z,69.63
2019-05-05T04:04:25.672Z,70.50
2019-05-05T04:07:14.010Z,70.53
2019-05-05T04:10:03.759Z,70.29
2019-05-05T04:12:51.245Z,70.12
2019-05-05T04:15:40.397Z,70.10
2019-05-05T04:18:29.427Z,69.22
2019-05-05T04:21:29.580Z,69.94
2019-05-05T04:24:07.013Z,69.64
2019-05-05T04:26:54.656Z,70.00
2019-05-05T04:29:43.991Z,69.76
2019-05-05T04:32:31.604Z,70.10
2019-05-05T04:35:18.873Z,69.76
2019-05-05T04:38:06.978Z,70.69
2019-05-05T04:40:54.714Z,70.51
2019-05-05T04:43:44.073Z,69.38
2019-05-05T04:46:33.717Z,69.16
2019-05-05T04:49:27.401Z,69.16
2019-05-05T04:52:15.755Z,68.59
2019-05-05T04:55:03.908Z,68.30
2019-05-05T04:57:51.199Z,68.73
2019-05-05T05:00:38.611Z,68.81
2019-05-05T05:03:50.059Z,68.20
2019-05-05T05:06:41.175Z,68.71
2019-05-05T05:09:28.547Z,68.53
2019-05-05T05:12:16.159Z,68.13
2019-05-05T05:15:04.409Z,68.20
2019-05-05T05:17:59.272Z,68.39
2019-05-05T05:20:46.669Z,68.76
2019-05-05T05:23:34.221Z,68.94
2019-05-05T05:26:24.125Z,69.03
2019-05-05T05:29:10.989Z,68.09
2019-05-05T05:31:58.602Z,68.51
2019-05-05T05:34:45.727Z,67.82
2019-05-05T05:37:34.266Z,67.46
2019-05-05T05:40:37.515Z,67.27
2019-05-05T05:43:33.540Z,67.33
2019-05-05T05:46:30.572Z,67.45
2019-05-05T05:49:28.339Z,67.38
2019-05-05T05:52:19.231Z,67.58
2019-05-05T05:55:05.435Z,67.53
2019-05-05T05:57:54.196Z,67.67
2019-05-05T06:00:44.259Z,67.36
2019-05-05T06:03:33.762Z,67.74
2019-05-05T06:06:20.872Z,68.52
2019-05-05T06:09:08.450Z,67.14
2019-05-05T06:11:56.109Z,66.75
2019-05-05T06:14:44.734Z,68.01
2019-05-05T06:17:34.162Z,67.02
2019-05-05T06:20:21.207Z,66.46
2019-05-05T06:23:08.968Z,66.36
2019-05-05T06:25:57.086Z,66.21
2019-05-05T06:28:44.876Z,65.85
2019-05-05T06:31:34.250Z,65.41
2019-05-05T06:34:21.424Z,66.81
2019-05-05T06:37:09.098Z,66.98
2019-05-05T06:39:59.422Z,67.57
2019-05-05T06:43:02.156Z,65.76
2019-05-05T06:45:54.337Z,66.27
2019-05-05T06:48:43.713Z,64.90
2019-05-05T06:51:31.191Z,65.49
2019-05-05T06:54:18.756Z,65.72
2019-05-05T06:57:06.178Z,65.22
2019-05-05T06:59:54.427Z,64.80
2019-05-05T07:02:44.453Z,65.45
2019-05-05T07:05:34.044Z,65.54
2019-05-05T07:08:20.950Z,64.08
2019-05-05T07:11:08.695Z,65.64
2019-05-05T07:13:56.060Z,66.04
2019-05-05T07:16:43.905Z,63.72
2019-05-05T07:19:31.447Z,64.75
2019-05-05T07:22:19.602Z,64.76
2019-05-05T07:25:07.141Z,64.88
2019-05-05T07:27:54.793Z,63.49
2019-05-05T07:30:44.185Z,64.56
2019-05-05T07:33:31.537Z,63.93
2019-05-05T07:36:39.002Z,64.11
2019-05-05T07:39:27.026Z,63.64
2019-05-05T07:42:15.042Z,64.64
2019-05-05T07:45:05.453Z,64.01
2019-05-05T07:47:53.802Z,63.74
2019-05-05T07:50:41.181Z,63.10
2019-05-05T07:53:29.134Z,63.96
2019-05-05T07:56:16.501Z,64.16
2019-05-05T07:59:04.073Z,64.02
2019-05-05T08:01:51.534Z,60.53
2019-05-05T08:04:39.464Z,60.73
2019-05-05T08:07:26.994Z,59.77
2019-05-05T08:10:14.638Z,59.23
2019-05-05T08:13:02.152Z,58.50
2019-05-05T08:15:59.082Z,59.19
2019-05-05T08:19:05.445Z,59.74
2019-05-05T08:21:54.215Z,59.97
2019-05-05T08:25:06.836Z,56.56
2019-05-05T08:28:04.445Z,58.21
2019-05-05T08:31:14.468Z,57.83
2019-05-05T08:34:03.844Z,60.84
2019-05-05T08:36:50.896Z,59.22
2019-05-05T08:39:38.375Z,58.88
2019-05-05T08:42:26.000Z,59.32
2019-05-05T08:45:13.883Z,58.50
2019-05-05T08:48:01.685Z,58.20
2019-05-05T08:50:49.426Z,59.11
2019-05-05T08:53:44.479Z,59.41
2019-05-05T08:56:26.405Z,57.87
2019-05-05T08:59:14.415Z,58.03
2019-05-05T09:02:04.337Z,59.40
2019-05-05T09:04:51.088Z,59.70
2019-05-05T09:07:38.507Z,59.95
2019-05-05T09:10:25.804Z,58.32
2019-05-05T09:13:14.356Z,54.40
2019-05-05T09:16:03.783Z,55.31
2019-05-05T09:19:04.308Z,55.43
2019-05-05T09:21:53.984Z,55.32
2019-05-05T09:24:48.623Z,55.42
2019-05-05T09:27:48.768Z,54.17
2019-05-05T09:30:38.894Z,53.89
2019-05-05T09:33:26.511Z,54.46
2019-05-05T09:36:14.107Z,54.78
2019-05-05T09:39:01.634Z,55.60
2019-05-05T09:41:49.432Z,55.15
2019-05-05T09:44:36.690Z,55.66
2019-05-05T09:47:24.164Z,54.17
2019-05-05T09:50:11.663Z,52.15
2019-05-05T09:52:59.270Z,53.52
2019-05-05T09:55:46.747Z,54.21
2019-05-05T09:58:34.858Z,53.41
2019-05-05T10:01:24.430Z,53.58
2019-05-05T10:04:13.733Z,53.09
2019-05-05T10:07:00.448Z,52.77
2019-05-05T10:09:48.079Z,53.46
2019-05-05T10:12:35.975Z,53.05
2019-05-05T10:15:23.566Z,53.82
2019-05-05T10:18:13.917Z,53.99
2019-05-05T10:21:00.557Z,51.82
2019-05-05T10:23:50.059Z,50.92
2019-05-05T10:26:37.433Z,52.36
2019-05-05T10:29:25.201Z,54.03
2019-05-05T10:32:13.832Z,53.01
2019-05-05T10:35:04.471Z,54.15
2019-05-05T10:37:54.497Z,51.53
2019-05-05T10:40:44.562Z,51.19
2019-05-05T10:43:35.114Z,51.81
2019-05-05T10:46:27.862Z,50.19
2019-05-05T10:49:16.183Z,49.97
2019-05-05T10:52:03.963Z,51.71
2019-05-05T10:54:56.735Z,54.25
2019-05-05T10:57:48.989Z,56.74
2019-05-05T11:00:44.625Z,57.10
2019-05-05T11:03:34.417Z,58.18
2019-05-05T11:06:22.087Z,56.61
2019-05-05T11:09:09.584Z,56.64
2019-05-05T11:11:57.264Z,57.36
2019-05-05T11:14:44.948Z,57.31
2019-05-05T11:17:32.420Z,55.64
2019-05-05T11:20:19.933Z,55.90
2019-05-05T11:23:07.590Z,55.85
2019-05-05T11:25:54.938Z,57.47
2019-05-05T11:28:42.047Z,55.90
2019-05-05T11:31:29.793Z,56.63
2019-05-05T11:34:28.998Z,54.33
2019-05-05T11:37:18.959Z,55.55
2019-05-05T11:40:06.310Z,53.86
2019-05-05T11:42:54.115Z,52.29
2019-05-05T11:45:43.704Z,50.59
2019-05-05T11:48:30.520Z,48.67
2019-05-05T11:51:18.485Z,46.08
2019-05-05T11:54:06.410Z,46.53
2019-05-05T11:56:54.141Z,47.16
2019-05-05T11:59:41.972Z,45.26
2019-05-05T12:02:29.499Z,45.23
2019-05-05T12:05:17.335Z,44.73
2019-05-05T12:08:05.149Z,47.08
2019-05-05T12:11:00.254Z,47.33
2019-05-05T12:13:48.110Z,48.67
2019-05-05T12:16:35.233Z,47.84
2019-05-05T12:19:24.367Z,48.62
2019-05-05T12:22:12.153Z,47.39
2019-05-05T12:25:01.360Z,47.94
2019-05-05T12:28:08.149Z,46.26
2019-05-05T12:30:57.139Z,44.47
2019-05-05T12:33:44.381Z,43.47
2019-05-05T12:36:34.052Z,40.93
2019-05-05T12:39:21.469Z,42.78
2019-05-05T12:42:08.961Z,41.44
2019-05-05T12:45:01.553Z,40.13
2019-05-05T12:48:07.080Z,39.68
2019-05-05T12:50:54.759Z,39.61
2019-05-05T12:53:41.999Z,39.97
2019-05-05T12:56:29.364Z,41.85
2019-05-05T12:59:22.166Z,39.48
2019-05-05T13:02:09.601Z,40.59
2019-05-05T13:04:57.327Z,39.53
2019-05-05T13:07:45.282Z,39.06
2019-05-05T13:10:34.383Z,39.40
2019-05-05T13:13:23.537Z,40.57
2019-05-05T13:16:13.482Z,40.36
2019-05-05T13:19:04.339Z,40.71
2019-05-05T13:22:13.622Z,40.25
2019-05-05T13:25:26.421Z,40.83
2019-05-05T13:28:14.511Z,41.51
2019-05-05T13:31:04.510Z,41.03
2019-05-05T13:33:51.335Z,42.31
2019-05-05T13:36:39.389Z,43.23
2019-05-05T13:39:26.729Z,42.62
2019-05-05T13:42:14.775Z,37.96
2019-05-05T13:45:23.664Z,38.48
2019-05-05T13:48:10.711Z,36.67
2019-05-05T13:51:01.180Z,35.85
2019-05-05T13:53:49.354Z,36.62
2019-05-05T13:56:36.952Z,36.33
2019-05-05T13:59:25.618Z,35.43
2019-05-05T14:02:13.764Z,37.63
2019-05-05T14:05:01.547Z,39.08
2019-05-05T14:07:48.913Z,39.23
2019-05-05T14:10:35.983Z,40.29
2019-05-05T14:13:24.705Z,40.31
2019-05-05T14:16:14.330Z,40.75
2019-05-05T14:19:04.250Z,40.76
2019-05-05T14:21:51.340Z,39.54
2019-05-05T14:24:53.761Z,38.64
2019-05-05T14:27:43.531Z,37.78
2019-05-05T14:30:38.448Z,38.43
2019-05-05T14:33:28.890Z,38.00
2019-05-05T14:36:24.501Z,37.92
2019-05-05T14:39:14.765Z,38.83
2019-05-05T14:42:04.474Z,39.24
2019-05-05T14:44:51.803Z,38.89
2019-05-05T14:47:39.752Z,40.18
2019-05-05T14:50:26.730Z,40.28
2019-05-05T14:53:14.562Z,41.82
2019-05-05T14:56:04.479Z,40.67
2019-05-05T14:58:51.203Z,40.85
2019-05-05T15:01:38.905Z,41.71
2019-05-05T15:04:28.390Z,41.08
2019-05-05T15:07:33.826Z,41.01
2019-05-05T15:10:38.833Z,40.15
2019-05-05T15:13:26.332Z,39.64
2019-05-05T15:16:14.025Z,39.25
2019-05-05T15:19:03.923Z,39.93
2019-05-05T15:21:51.011Z,40.20
2019-05-05T15:24:38.641Z,40.73
2019-05-05T15:27:26.010Z,41.19
2019-05-05T15:30:14.287Z,41.20
2019-05-05T15:33:01.915Z,41.18
2019-05-05T15:35:49.633Z,41.99
2019-05-05T15:38:37.251Z,41.08
2019-05-05T15:41:24.935Z,40.14
2019-05-05T15:44:13.465Z,39.61
2019-05-05T15:47:01.442Z,39.67
2019-05-05T15:49:48.877Z,40.41
2019-05-05T15:52:36.948Z,39.95
2019-05-05T15:55:24.532Z,38.63
2019-05-05T15:58:14.012Z,37.39
2019-05-05T16:01:04.578Z,38.27
2019-05-05T16:03:51.847Z,38.09
2019-05-05T16:06:39.564Z,38.68
2019-05-05T16:09:27.117Z,41.32
2019-05-05T16:12:14.507Z,41.54
2019-05-05T16:15:15.259Z,42.34
2019-05-05T16:18:30.525Z,42.48
2019-05-05T16:21:51.955Z,42.23
2019-05-05T16:24:40.879Z,43.81
2019-05-05T16:27:28.365Z,41.64
2019-05-05T16:30:16.825Z,40.16
2019-05-05T16:33:04.522Z,38.37
2019-05-05T16:35:52.066Z,39.16
2019-05-05T16:38:39.348Z,38.80
2019-05-05T16:41:26.762Z,38.68
2019-05-05T16:44:15.844Z,40.15
2019-05-05T16:47:04.733Z,40.24
2019-05-05T16:49:53.820Z,41.23
2019-05-05T16:52:46.426Z,40.62
2019-05-05T16:55:38.629Z,40.48
2019-05-05T16:58:25.933Z,41.62
2019-05-05T17:01:14.999Z,41.50
2019-05-05T17:04:11.266Z,41.67
2019-05-05T17:06:51.819Z,41.68
2019-05-05T17:09:39.620Z,41.40
2019-05-05T17:12:27.372Z,41.57
2019-05-05T17:15:23.564Z,41.62
2019-05-05T17:18:35.990Z,41.84
2019-05-05T17:21:26.676Z,42.32
2019-05-05T17:24:14.442Z,42.80
2019-05-05T17:27:03.596Z,43.25
2019-05-05T17:29:50.773Z,43.87
2019-05-05T17:32:38.030Z,43.21
2019-05-05T17:35:25.390Z,44.11
2019-05-05T17:38:15.282Z,44.96
2019-05-05T17:41:24.791Z,47.25
2019-05-05T17:44:20.680Z,49.14
2019-05-05T17:47:18.096Z,49.77
2019-05-05T17:50:19.078Z,51.42
2019-05-05T17:53:19.548Z,53.57
2019-05-05T17:56:09.236Z,56.67
2019-05-05T17:58:56.864Z,55.46
2019-05-05T18:01:44.320Z,57.17
2019-05-05T18:04:33.761Z,57.28
2019-05-05T18:07:46.261Z,55.46
2019-05-05T18:10:40.753Z,57.86
2019-05-05T18:13:35.151Z,58.66
2019-05-05T18:16:26.549Z,58.47
2019-05-05T18:19:14.031Z,57.76
2019-05-05T18:22:01.776Z,57.84
2019-05-05T18:24:49.607Z,58.03
2019-05-05T18:27:36.975Z,56.90
2019-05-05T18:30:24.483Z,55.11
2019-05-05T18:33:13.719Z,56.25
2019-05-05T18:36:00.876Z,55.50
2019-05-05T18:38:48.006Z,55.92
2019-05-05T18:41:49.978Z,55.37
2019-05-05T18:44:40.305Z,56.10
2019-05-05T18:47:27.961Z,56.78
2019-05-05T18:50:15.479Z,57.15
2019-05-05T18:53:04.672Z,58.08
2019-05-05T18:55:53.925Z,56.77
2019-05-05T18:58:41.141Z,57.46
2019-05-05T19:01:48.273Z,57.83
2019-05-05T19:04:49.095Z,57.21
2019-05-05T19:07:52.321Z,57.40
2019-05-05T19:10:28.492Z,57.08
2019-05-05T19:13:16.245Z,56.35
2019-05-05T19:16:03.739Z,58.75
2019-05-05T19:18:51.548Z,58.47
2019-05-05T19:21:41.323Z,57.93
2019-05-05T19:24:28.345Z,58.23
2019-05-05T19:27:16.111Z,60.17
2019-05-05T19:30:04.444Z,59.05
2019-05-05T19:32:54.080Z,55.17
2019-05-05T19:35:45.081Z,54.41
2019-05-05T19:38:30.612Z,53.85
2019-05-05T19:41:18.379Z,55.57
2019-05-05T19:44:06.258Z,53.39
2019-05-05T19:46:59.119Z,56.68
2019-05-05T19:49:53.404Z,58.25
2019-05-05T19:52:40.897Z,59.14
2019-05-05T19:55:27.952Z,59.55
2019-05-05T19:58:15.366Z,59.92
2019-05-05T20:01:05.038Z,59.04
2019-05-05T20:03:52.873Z,59.44
2019-05-05T20:06:40.911Z,59.80
2019-05-05T20:09:28.746Z,59.75
2019-05-05T20:12:18.417Z,59.98
2019-05-05T20:15:07.956Z,58.16
2019-05-05T20:17:55.813Z,58.31
2019-05-05T20:20:44.519Z,57.93
2019-05-05T20:23:34.019Z,56.27
2019-05-05T20:26:21.514Z,55.87
2019-05-05T20:29:14.179Z,56.54
2019-05-05T20:31:59.200Z,56.26
2019-05-05T20:35:04.463Z,57.77
2019-05-05T20:37:55.740Z,59.04
2019-05-05T20:40:44.615Z,57.34
2019-05-05T20:43:31.976Z,57.72
2019-05-05T20:46:19.914Z,59.06
2019-05-05T20:49:07.652Z,58.53
2019-05-05T20:51:55.309Z,58.20
2019-05-05T20:54:44.072Z,58.47
2019-05-05T20:57:31.883Z,58.25
2019-05-05T21:00:19.160Z,57.87
2019-05-05T21:03:06.606Z,57.76
2019-05-05T21:05:54.114Z,59.94
2019-05-05T21:08:43.804Z,58.40
2019-05-05T21:11:30.959Z,59.55
2019-05-05T21:14:31.257Z,60.13
2019-05-05T21:17:08.860Z,59.89
2019-05-05T21:19:56.490Z,59.52
2019-05-05T21:23:03.648Z,59.90
2019-05-05T21:25:58.096Z,60.35
2019-05-05T21:28:46.104Z,60.99
2019-05-05T21:31:34.593Z,61.05
2019-05-05T21:34:22.077Z,62.09
2019-05-05T21:37:09.740Z,62.15
2019-05-05T21:39:57.634Z,62.63
2019-05-05T21:42:45.017Z,61.32
2019-05-05T21:45:34.744Z,61.45
2019-05-05T21:48:24.233Z,62.55
2019-05-05T21:51:23.978Z,63.24
2019-05-05T21:54:29.265Z,63.57
2019-05-05T21:57:35.754Z,62.88
2019-05-05T22:00:41.422Z,63.32
2019-05-05T22:03:34.814Z,63.15
2019-05-05T22:06:23.979Z,62.85
2019-05-05T22:09:11.363Z,64.49
2019-05-05T22:11:59.014Z,63.78
2019-05-05T22:14:46.605Z,63.58
2019-05-05T22:17:36.310Z,63.37
2019-05-05T22:20:38.254Z,63.55
2019-05-05T22:23:25.780Z,64.04
2019-05-05T22:26:14.623Z,63.97
2019-05-05T22:29:02.070Z,64.31
2019-05-05T22:31:49.624Z,64.72
2019-05-05T22:34:37.137Z,64.77
2019-05-05T22:37:24.303Z,65.54
2019-05-05T22:40:20.504Z,65.08
2019-05-05T22:43:08.243Z,64.57
2019-05-05T22:45:56.123Z,64.51
2019-05-05T22:48:44.292Z,64.22
2019-05-05T22:51:33.818Z,64.49
2019-05-05T22:54:20.965Z,64.86
2019-05-05T22:57:08.393Z,65.12
2019-05-05T22:59:56.615Z,65.55
2019-05-05T23:02:48.722Z,65.46
2019-05-05T23:05:58.087Z,65.61
2019-05-05T23:08:45.620Z,66.47
2019-05-05T23:11:33.520Z,66.55
2019-05-05T23:14:27.939Z,66.31
2019-05-05T23:17:37.151Z,65.96
2019-05-05T23:20:51.453Z,65.36
2019-05-05T23:23:56.656Z,64.61
2019-05-05T23:26:44.790Z,63.90
2019-05-05T23:29:33.985Z,63.91
2019-05-05T23:32:20.752Z,64.43
2019-05-05T23:35:08.211Z,64.17
2019-05-05T23:37:56.118Z,64.77
2019-05-05T23:40:43.691Z,64.57
2019-05-05T23:43:31.402Z,64.56
2019-05-05T23:46:18.953Z,64.84
2019-05-05T23:49:06.314Z,64.98
2019-05-05T23:51:54.164Z,64.72
2019-05-05T23:54:41.793Z,64.21
2019-05-05T23:57:29.453Z,64.26
